OIZI  Iran Shahr Airport

Add Bookmark

Iran

Status
Operational
Latitude Longitude
27° 14' 9" N 60° 43' 12" E
27.236099 60.720001
Local (DST + 5) UTC (GMT + 4)
Sep 3, 2014 04:13 Sep 2, 2014 23:43
Sunrise-Sunset Local UTC
Begin Civil Twilight 05:42 01:12
Sunrise 06:06 01:36
Sunset 06:46 14:16
End Civil Twilight 07:10 14:40

Current Weather

METAR Observed VFR
OIZI 022100Z 09006KT CAVOK 32/M01 Q1005 Tue, Sep 2, 2014 @ 21:00 UTC
(2 Hours, 43 Minutes ago)
Visual Flight Rules
Wind Visibility Clouds Conditions
090° at 6 knots (11 kph) 10 km or more
  • Clear skies
  • No significant weather
Temperatures Readings Precipitation
Current Temp 32°C (90°F)
Dewpoint -1°C (30°F)
Humidity 12%
Altimeter 29.68"Hg
Sea Level Pressure 1005mb
Field Elevation 1938.98'
None Recorded

24 Hour Weather History

Loading
-

24 Hour Weather Graphs

Loading
-

CheckWX.com is intended as a tool to help pilots better visualize weather data. It is not intended as a substitute for an official weather briefing obtained from a Flight Service Station. CheckWX.com does not meet the FAA requirements for an official pre-flight weather briefing. Therefore, it's important that pilots still call and obtain an official FSS pre-flight weather briefing.